KMCE/MCE METAR and TAF weather

Enter ICAO airport designator
Station Type Date Time Source
KMCE METAR 2021/09/28 03:53 UTC NOAA

KMCE 280353Z AUTO 34013KT 10SM CLR 21/14 A2997 RMK AO2 SLP149 T02110139


Station Type Date Time Source
KMCE Decoded METAR 2021/09/28 03:53 UTC NOAA

MERCED MUNICIPAL AIRPORT, CA, United States (KMCE) 37-17N 120-30W 47M
Sep 27, 2021 - 11:53 PM EDT / 2021.09.28 0353 UTC
Wind: from the NNW (340 degrees) at 15 MPH (13 KT):0
Visibility: 10 mile(s):0
Sky conditions: clear
Temperature: 70.0 F (21.1 C)
Dew Point: 57.0 F (13.9 C)
Relative Humidity: 63%
Pressure (altimeter): 29.97 in. Hg (1014 hPa)
ob: KMCE 280353Z AUTO 34013KT 10SM CLR 21/14 A2997 RMK AO2 SLP149 T02110139
cycle: 4

Station Type Date Time Source
KMCE TAF 2021/09/27 18:22 UTC NOAA

TAF KMCE 271720Z 2718/2818 33007KT P6SM SKC
FM280000 33014G21KT P6SM SCT050

Example: see airport list